MMPS

Details ICAO MMPS (PXM)
Name Puerto Escondido Intl
Region Mexico
Timezone America/Mexico_City (UTC-5.0)
Plans Departing 55
Arriving 95
Stats Elevation 294 ft / 90 m (AMSL)
Location 15.876900° -97.089100°
Runways 1
Magnetic Variation 3.454° E
Sunrise 2022-08-17 12:14:47 UTC / 2022-08-17 07:14:47 Local
Sunset 2022-08-18 00:52:56 UTC / 2022-08-17 19:52:56 Local
Advertisement - Login to hide

Runways

ID Width Length Bearing (true/mag) Surface Threshold Overrun Markings Lighting
09 148 ft / 45 m 7,571 ft / 2,308 m 93.56° / 90.10° ASPHALT 0 ft / 0 m 184 ft / 56 m APP EDGE THRESHOLD
27 148 ft / 45 m 7,571 ft / 2,308 m 273.56° / 270.11° ASPHALT 0 ft / 0 m 200 ft / 61 m APP EDGE THRESHOLD

Map

Weather


0- 5 10 15 20 25 30 35+ Temperature / °C

Clouds and Precipitation
Forecast for 2022-08-18 06:00 UTC. Updated an hour ago

Ground ~20,000 ft ~40,000 ft Winds

METAR

MMPS 180346Z 00000KT 7SM SCT030 BKN100 OVC200 27/21 A2993 RMK 8/363

TAF

TAF MMPS 171603Z 1718/1818 16008KT P6SM BKN020 BKN090 BKN250 BECMG 1720/1721 P6SM VC RA BKN020CB TEMPO 1721/1801 4SM TSRA FM180100 05004KT 6SM -RA BKN015 OVC100 BECMG 1807/1808 P6SM BKN020 BKN120 BKN250 FM181400 20006KT P6SM BKN020 BKN140 OVC250

Frequencies

Tower 118.90 MHz Puerto Escondido Tower
Warning: Do not use this data for real-world aviation or navigation. No guarantee of current accuracy is given.